LTBA METAR and TAF | Updated Today

LTBA METAR

Atatürk International Airport

Observation time: 31 min. ago

LTBA 251920Z 05005KT CAVOK 22/10 Q1018 NOSIG RMK RWY23 03004KT

Need help? Read our tutorial on how to read METARs or read the parsed version below.

Atatürk International Airport (LTBA) METAR

  • Weather conditions on Wed, 25 May 2022 19:20:00 +0000 (31 min. ago):
  • Present conditions: Dry
  • Clouds: Clear skies
  • Visibility: Greater than 10 km
  • Wind: 50 degrees at 5 knots
  • Temperature: 22 celsius
  • Dew point: 10 celsius
  • Pressure: 1018 millibars
  • Remarks: RWY23 03004KT


Useful to know...

LTBA TAF

Atatürk International Airport

TAF LTBA 251640Z 2518/2624 VRB02KT CAVOK BECMG 2606/2609 24012KT SCT035
Observation time: 3:11 hr. ago
Need help? Read our tutorial on how to read TAFs or read the parsed version below.

Parsed version of TAF for Atatürk International Airport (LTBA)

  • From 25 May at 18:00 UTC, to day 26 of the month at 24:00 UTC
  • Visibility: Greater than 10 km
  • Wind: Variable at 2
  • Expected to arise soon, from 26 May at 06:00 UTC, to day 26 of the month at 09:00 UTC
  • Clouds: Scattered at 1067 meters
  • Wind: 240 degrees at 12